sensor_id;sensor_type;location;lat;lon;timestamp;pressure;altitude;pressure_sealevel;temperature;humidity
71059;BME280;70265;47.576;19.270;2023-12-20T00:00:28;98933.22;;;-2.97;100.00
71059;BME280;70265;47.576;19.270;2023-12-20T00:01:29;98923.03;;;-2.98;100.00
71059;BME280;70265;47.576;19.270;2023-12-20T00:02:33;98923.66;;;-2.93;100.00
71059;BME280;70265;47.576;19.270;2023-12-20T00:03:34;98924.56;;;-2.94;100.00
71059;BME280;70265;47.576;19.270;2023-12-20T00:04:35;98915.28;;;-2.97;100.00
71059;BME280;70265;47.576;19.270;2023-12-20T00:05:38;98915.03;;;-2.92;100.00
71059;BME280;70265;47.576;19.270;2023-12-20T00:06:41;98913.59;;;-2.98;100.00
71059;BME280;70265;47.576;19.270;2023-12-20T00:07:45;98911.91;;;-2.99;100.00
71059;BME280;70265;47.576;19.270;2023-12-20T00:08:45;98910.13;;;-2.97;100.00
71059;BME280;70265;47.576;19.270;2023-12-20T00:09:49;98910.28;;;-3.00;100.00
71059;BME280;70265;47.576;19.270;2023-12-20T00:10:50;98905.28;;;-3.03;100.00
71059;BME280;70265;47.576;19.270;2023-12-20T00:11:51;98907.16;;;-3.06;100.00
71059;BME280;70265;47.576;19.270;2023-12-20T00:12:54;98903.88;;;-3.10;100.00
71059;BME280;70265;47.576;19.270;2023-12-20T00:13:55;98903.88;;;-3.10;100.00
71059;BME280;70265;47.576;19.270;2023-12-20T00:14:58;98895.28;;;-3.09;100.00
71059;BME280;70265;47.576;19.270;2023-12-20T00:16:02;98894.38;;;-3.08;100.00
71059;BME280;70265;47.576;19.270;2023-12-20T00:17:06;98896.81;;;-3.05;100.00
71059;BME280;70265;47.576;19.270;2023-12-20T00:18:08;98901.03;;;-3.04;100.00
71059;BME280;70265;47.576;19.270;2023-12-20T00:19:11;98896.81;;;-3.05;100.00
71059;BME280;70265;47.576;19.270;2023-12-20T00:20:13;98894.88;;;-3.00;100.00
71059;BME280;70265;47.576;19.270;2023-12-20T00:21:16;98893.22;;;-3.01;100.00
71059;BME280;70265;47.576;19.270;2023-12-20T00:22:17;98891.25;;;-2.96;100.00
71059;BME280;70265;47.576;19.270;2023-12-20T00:23:21;98892.09;;;-2.95;100.00
71059;BME280;70265;47.576;19.270;2023-12-20T00:24:23;98890.31;;;-2.93;100.00
71059;BME280;70265;47.576;19.270;2023-12-20T00:25:24;98886.13;;;-2.96;100.00
71059;BME280;70265;47.576;19.270;2023-12-20T00:26:28;98885.94;;;-2.91;100.00
71059;BME280;70265;47.576;19.270;2023-12-20T00:27:29;98885.03;;;-2.90;100.00
71059;BME280;70265;47.576;19.270;2023-12-20T00:28:30;98881.84;;;-2.95;100.00
71059;BME280;70265;47.576;19.270;2023-12-20T00:29:33;98879.06;;;-2.91;100.00
71059;BME280;70265;47.576;19.270;2023-12-20T00:30:34;98878.94;;;-2.88;100.00
71059;BME280;70265;47.576;19.270;2023-12-20T00:31:39;98878.78;;;-2.85;100.00
71059;BME280;70265;47.576;19.270;2023-12-20T00:32:42;98879.06;;;-2.91;100.00
71059;BME280;70265;47.576;19.270;2023-12-20T00:33:46;98877.00;;;-2.83;100.00
71059;BME280;70265;47.576;19.270;2023-12-20T00:34:47;98872.00;;;-2.86;100.00
71059;BME280;70265;47.576;19.270;2023-12-20T00:35:51;98864.44;;;-2.89;100.00
71059;BME280;70265;47.576;19.270;2023-12-20T00:36:52;98869.31;;;-2.83;100.00
71059;BME280;70265;47.576;19.270;2023-12-20T00:37:55;98867.00;;;-2.89;100.00
71059;BME280;70265;47.576;19.270;2023-12-20T00:38:56;98860.91;;;-2.86;100.00
71059;BME280;70265;47.576;19.270;2023-12-20T00:39:57;98856.63;;;-2.86;100.00
71059;BME280;70265;47.576;19.270;2023-12-20T00:41:01;98859.94;;;-2.84;100.00
71059;BME280;70265;47.576;19.270;2023-12-20T00:42:02;98857.97;;;-2.79;100.00
71059;BME280;70265;47.576;19.270;2023-12-20T00:43:05;98856.00;;;-2.72;100.00
71059;BME280;70265;47.576;19.270;2023-12-20T00:44:06;98848.41;;;-2.75;100.00
71059;BME280;70265;47.576;19.270;2023-12-20T00:45:10;98856.88;;;-2.73;100.00
71059;BME280;70265;47.576;19.270;2023-12-20T00:46:11;98849.31;;;-2.76;100.00
71059;BME280;70265;47.576;19.270;2023-12-20T00:47:17;98850.03;;;-2.73;100.00
71059;BME280;70265;47.576;19.270;2023-12-20T00:48:18;98843.06;;;-2.71;100.00
71059;BME280;70265;47.576;19.270;2023-12-20T00:49:21;98845.28;;;-2.82;100.00
71059;BME280;70265;47.576;19.270;2023-12-20T00:50:22;98839.13;;;-2.78;100.00
71059;BME280;70265;47.576;19.270;2023-12-20T00:51:26;98838.78;;;-2.70;100.00
71059;BME280;70265;47.576;19.270;2023-12-20T00:52:27;98832.59;;;-2.66;100.00
71059;BME280;70265;47.576;19.270;2023-12-20T00:53:28;98823.28;;;-2.69;100.00
71059;BME280;70265;47.576;19.270;2023-12-20T00:54:31;98823.38;;;-2.70;100.00
71059;BME280;70265;47.576;19.270;2023-12-20T00:55:32;98826.91;;;-2.73;100.00
71059;BME280;70265;47.576;19.270;2023-12-20T00:56:33;98829.41;;;-2.71;100.00
71059;BME280;70265;47.576;19.270;2023-12-20T00:57:36;98826.53;;;-2.65;100.00
71059;BME280;70265;47.576;19.270;2023-12-20T00:58:37;98830.22;;;-2.71;100.00
71059;BME280;70265;47.576;19.270;2023-12-20T00:59:41;98827.59;;;-2.69;100.00
71059;BME280;70265;47.576;19.270;2023-12-20T01:00:42;98834.31;;;-2.67;100.00
71059;BME280;70265;47.576;19.270;2023-12-20T01:01:45;98835.91;;;-2.64;100.00
71059;BME280;70265;47.576;19.270;2023-12-20T01:02:49;98833.00;;;-2.57;100.00
71059;BME280;70265;47.576;19.270;2023-12-20T01:03:51;98834.56;;;-2.54;100.00
71059;BME280;70265;47.576;19.270;2023-12-20T01:04:56;98837.00;;;-2.51;100.00
71059;BME280;70265;47.576;19.270;2023-12-20T01:05:56;98833.59;;;-2.51;100.00
71059;BME280;70265;47.576;19.270;2023-12-20T01:07:00;98827.84;;;-2.57;100.00
71059;BME280;70265;47.576;19.270;2023-12-20T01:08:01;98825.19;;;-2.55;100.00
71059;BME280;70265;47.576;19.270;2023-12-20T01:09:05;98826.88;;;-2.54;100.00
71059;BME280;70265;47.576;19.270;2023-12-20T01:10:06;98826.03;;;-2.54;100.00
71059;BME280;70265;47.576;19.270;2023-12-20T01:11:10;98824.41;;;-2.55;100.00
71059;BME280;70265;47.576;19.270;2023-12-20T01:12:11;98818.50;;;-2.58;100.00
71059;BME280;70265;47.576;19.270;2023-12-20T01:13:14;98822.88;;;-2.60;100.00
71059;BME280;70265;47.576;19.270;2023-12-20T01:14:15;98822.09;;;-2.62;100.00
71059;BME280;70265;47.576;19.270;2023-12-20T01:15:19;98817.88;;;-2.63;100.00
71059;BME280;70265;47.576;19.270;2023-12-20T01:16:20;98823.91;;;-2.64;100.00
71059;BME280;70265;47.576;19.270;2023-12-20T01:17:21;98816.38;;;-2.67;100.00
71059;BME280;70265;47.576;19.270;2023-12-20T01:18:30;98819.69;;;-2.65;100.00
71059;BME280;70265;47.576;19.270;2023-12-20T01:19:31;98826.47;;;-2.64;100.00
71059;BME280;70265;47.576;19.270;2023-12-20T01:20:34;98815.31;;;-2.63;100.00
71059;BME280;70265;47.576;19.270;2023-12-20T01:21:35;98821.97;;;-2.59;100.00
71059;BME280;70265;47.576;19.270;2023-12-20T01:22:36;98823.78;;;-2.61;100.00
71059;BME280;70265;47.576;19.270;2023-12-20T01:23:40;98822.09;;;-2.62;100.00
71059;BME280;70265;47.576;19.270;2023-12-20T01:24:41;98819.41;;;-2.59;100.00
71059;BME280;70265;47.576;19.270;2023-12-20T01:25:44;98820.22;;;-2.58;100.00
71059;BME280;70265;47.576;19.270;2023-12-20T01:26:45;98811.63;;;-2.57;100.00
71059;BME280;70265;47.576;19.270;2023-12-20T01:27:46;98805.59;;;-2.56;100.00
71059;BME280;70265;47.576;19.270;2023-12-20T01:28:50;98800.38;;;-2.54;100.00
71059;BME280;70265;47.576;19.270;2023-12-20T01:29:51;98798.47;;;-2.51;100.00
71059;BME280;70265;47.576;19.270;2023-12-20T01:30:54;98794.81;;;-2.45;100.00
71059;BME280;70265;47.576;19.270;2023-12-20T01:31:55;98801.44;;;-2.41;100.00
71059;BME280;70265;47.576;19.270;2023-12-20T01:32:56;98792.00;;;-2.41;100.00
71059;BME280;70265;47.576;19.270;2023-12-20T01:34:02;98792.84;;;-2.40;100.00
71059;BME280;70265;47.576;19.270;2023-12-20T01:35:04;98784.97;;;-2.37;100.00
71059;BME280;70265;47.576;19.270;2023-12-20T01:36:08;98785.75;;;-2.35;100.00
71059;BME280;70265;47.576;19.270;2023-12-20T01:37:09;98781.47;;;-2.35;100.00
71059;BME280;70265;47.576;19.270;2023-12-20T01:38:10;98778.06;;;-2.35;100.00
71059;BME280;70265;47.576;19.270;2023-12-20T01:39:14;98782.25;;;-2.34;100.00
71059;BME280;70265;47.576;19.270;2023-12-20T01:40:15;98774.41;;;-2.31;100.00
71059;BME280;70265;47.576;19.270;2023-12-20T01:41:16;98775.19;;;-2.29;100.00
71059;BME280;70265;47.576;19.270;2023-12-20T01:42:19;98771.78;;;-2.30;100.00
71059;BME280;70265;47.576;19.270;2023-12-20T01:43:20;98769.16;;;-2.28;100.00
71059;BME280;70265;47.576;19.270;2023-12-20T01:44:24;98770.72;;;-2.26;100.00
71059;BME280;70265;47.576;19.270;2023-12-20T01:45:25;98768.06;;;-2.24;100.00
71059;BME280;70265;47.576;19.270;2023-12-20T01:46:28;98760.44;;;-2.26;100.00
71059;BME280;70265;47.576;19.270;2023-12-20T01:47:29;98763.03;;;-2.26;100.00
71059;BME280;70265;47.576;19.270;2023-12-20T01:48:33;98761.34;;;-2.27;100.00
71059;BME280;70265;47.576;19.270;2023-12-20T01:49:37;98756.00;;;-2.22;100.00
71059;BME280;70265;47.576;19.270;2023-12-20T01:50:41;98754.09;;;-2.19;100.00
71059;BME280;70265;47.576;19.270;2023-12-20T01:51:44;98754.78;;;-2.15;100.00
71059;BME280;70265;47.576;19.270;2023-12-20T01:52:45;98747.06;;;-2.15;100.00
71059;BME280;70265;47.576;19.270;2023-12-20T01:53:49;98738.59;;;-2.17;100.00
71059;BME280;70265;47.576;19.270;2023-12-20T01:54:50;98739.28;;;-2.14;100.00
71059;BME280;70265;47.576;19.270;2023-12-20T01:55:58;98737.47;;;-2.12;100.00
71059;BME280;70265;47.576;19.270;2023-12-20T01:57:00;98741.63;;;-2.09;100.00
71059;BME280;70265;47.576;19.270;2023-12-20T01:58:04;98731.34;;;-2.09;100.00
71059;BME280;70265;47.576;19.270;2023-12-20T01:59:06;98733.91;;;-2.09;100.00
71059;BME280;70265;47.576;19.270;2023-12-20T02:00:11;98728.94;;;-2.12;100.00
71059;BME280;70265;47.576;19.270;2023-12-20T02:01:13;98732.34;;;-2.12;100.00
71059;BME280;70265;47.576;19.270;2023-12-20T02:02:17;98728.03;;;-2.11;100.00
71059;BME280;70265;47.576;19.270;2023-12-20T02:03:18;98735.06;;;-2.15;100.00
71059;BME280;70265;47.576;19.270;2023-12-20T02:04:19;98734.31;;;-2.17;100.00
71059;BME280;70265;47.576;19.270;2023-12-20T02:05:25;98731.66;;;-2.15;100.00
71059;BME280;70265;47.576;19.270;2023-12-20T02:06:29;98726.84;;;-2.21;100.00
71059;BME280;70265;47.576;19.270;2023-12-20T02:07:31;98726.16;;;-2.25;100.00
71059;BME280;70265;47.576;19.270;2023-12-20T02:08:35;98712.22;;;-2.21;100.00
71059;BME280;70265;47.576;19.270;2023-12-20T02:09:36;98714.06;;;-2.23;100.00
71059;BME280;70265;47.576;19.270;2023-12-20T02:10:40;98714.91;;;-2.22;100.00
71059;BME280;70265;47.576;19.270;2023-12-20T02:11:41;98713.06;;;-2.20;100.00
71059;BME280;70265;47.576;19.270;2023-12-20T02:12:45;98705.47;;;-2.22;100.00
71059;BME280;70265;47.576;19.270;2023-12-20T02:13:45;98704.31;;;-2.16;100.00
71059;BME280;70265;47.576;19.270;2023-12-20T02:14:49;98701.75;;;-2.16;100.00
71059;BME280;70265;47.576;19.270;2023-12-20T02:15:50;98697.59;;;-2.19;100.00
71059;BME280;70265;47.576;19.270;2023-12-20T02:16:53;98699.38;;;-2.21;100.00
71059;BME280;70265;47.576;19.270;2023-12-20T02:17:55;98699.31;;;-2.19;100.00
71059;BME280;70265;47.576;19.270;2023-12-20T02:18:58;98697.34;;;-2.14;100.00
71059;BME280;70265;47.576;19.270;2023-12-20T02:19:59;98690.56;;;-2.15;100.00
71059;BME280;70265;47.576;19.270;2023-12-20T02:21:06;98695.88;;;-2.18;100.00
71059;BME280;70265;47.576;19.270;2023-12-20T02:22:11;98694.25;;;-2.21;100.00
71059;BME280;70265;47.576;19.270;2023-12-20T02:23:15;98688.22;;;-2.20;100.00
71059;BME280;70265;47.576;19.270;2023-12-20T02:24:16;98687.38;;;-2.20;100.00
71059;BME280;70265;47.576;19.270;2023-12-20T02:25:20;98688.97;;;-2.18;100.00
71059;BME280;70265;47.576;19.270;2023-12-20T02:26:20;98689.06;;;-2.19;100.00
71059;BME280;70265;47.576;19.270;2023-12-20T02:27:24;98685.88;;;-2.24;100.00
71059;BME280;70265;47.576;19.270;2023-12-20T02:28:25;98694.66;;;-2.28;100.00
71059;BME280;70265;47.576;19.270;2023-12-20T02:29:32;98690.50;;;-2.31;100.00
71059;BME280;70265;47.576;19.270;2023-12-20T02:30:33;98688.00;;;-2.32;100.00
71059;BME280;70265;47.576;19.270;2023-12-20T02:31:37;98687.19;;;-2.33;100.00
71059;BME280;70265;47.576;19.270;2023-12-20T02:32:37;98688.75;;;-2.30;100.00
71059;BME280;70265;47.576;19.270;2023-12-20T02:33:41;98689.91;;;-2.36;100.00
71059;BME280;70265;47.576;19.270;2023-12-20T02:34:42;98688.00;;;-2.32;100.00
71059;BME280;70265;47.576;19.270;2023-12-20T02:35:46;98685.75;;;-2.38;100.00
71059;BME280;70265;47.576;19.270;2023-12-20T02:36:48;98690.97;;;-2.40;100.00
71059;BME280;70265;47.576;19.270;2023-12-20T02:37:54;98685.22;;;-2.45;100.00
71059;BME280;70265;47.576;19.270;2023-12-20T02:38:55;98688.09;;;-2.51;100.00
71059;BME280;70265;47.576;19.270;2023-12-20T02:39:58;98686.44;;;-2.52;100.00
71059;BME280;70265;47.576;19.270;2023-12-20T02:40:59;98682.63;;;-2.45;100.00
71059;BME280;70265;47.576;19.270;2023-12-20T02:42:04;98681.69;;;-2.42;100.00
71059;BME280;70265;47.576;19.270;2023-12-20T02:43:05;98682.78;;;-2.48;100.00
71059;BME280;70265;47.576;19.270;2023-12-20T02:44:08;98675.78;;;-2.44;100.00
71059;BME280;70265;47.576;19.270;2023-12-20T02:45:09;98668.06;;;-2.44;100.00
71059;BME280;70265;47.576;19.270;2023-12-20T02:46:15;98669.16;;;-2.48;100.00
71059;BME280;70265;47.576;19.270;2023-12-20T02:47:16;98666.72;;;-2.51;100.00
71059;BME280;70265;47.576;19.270;2023-12-20T02:48:20;98664.25;;;-2.53;100.00
71059;BME280;70265;47.576;19.270;2023-12-20T02:49:21;98669.38;;;-2.53;100.00
71059;BME280;70265;47.576;19.270;2023-12-20T02:50:25;98666.13;;;-2.57;100.00
71059;BME280;70265;47.576;19.270;2023-12-20T02:51:26;98658.50;;;-2.58;100.00
71059;BME280;70265;47.576;19.270;2023-12-20T02:52:29;98664.53;;;-2.59;100.00
71059;BME280;70265;47.576;19.270;2023-12-20T02:53:35;98661.16;;;-2.60;100.00
71059;BME280;70265;47.576;19.270;2023-12-20T02:54:39;98652.69;;;-2.62;100.00
71059;BME280;70265;47.576;19.270;2023-12-20T02:55:40;98655.75;;;-2.55;100.00
71059;BME280;70265;47.576;19.270;2023-12-20T02:56:46;98655.13;;;-2.59;100.00
71059;BME280;70265;47.576;19.270;2023-12-20T02:57:47;98651.47;;;-2.54;100.00
71059;BME280;70265;47.576;19.270;2023-12-20T02:58:50;98653.13;;;-2.53;100.00
71059;BME280;70265;47.576;19.270;2023-12-20T02:59:51;98644.53;;;-2.52;100.00
71059;BME280;70265;47.576;19.270;2023-12-20T03:00:55;98653.97;;;-2.53;100.00
71059;BME280;70265;47.576;19.270;2023-12-20T03:01:56;98655.13;;;-2.59;100.00
71059;BME280;70265;47.576;19.270;2023-12-20T03:02:59;98656.75;;;-2.58;100.00
71059;BME280;70265;47.576;19.270;2023-12-20T03:04:00;98651.56;;;-2.56;100.00
71059;BME280;70265;47.576;19.270;2023-12-20T03:05:04;98665.38;;;-2.59;100.00
71059;BME280;70265;47.576;19.270;2023-12-20T03:06:06;98662.88;;;-2.60;100.00
71059;BME280;70265;47.576;19.270;2023-12-20T03:07:07;98650.09;;;-2.62;100.00
71059;BME280;70265;47.576;19.270;2023-12-20T03:08:12;98655.34;;;-2.63;100.00
71059;BME280;70265;47.576;19.270;2023-12-20T03:09:16;98655.81;;;-2.72;100.00
71059;BME280;70265;47.576;19.270;2023-12-20T03:10:19;98658.59;;;-2.77;100.00
71059;BME280;70265;47.576;19.270;2023-12-20T03:11:20;98654.34;;;-2.78;100.00
71059;BME280;70265;47.576;19.270;2023-12-20T03:12:24;98656.75;;;-2.75;100.00
71059;BME280;70265;47.576;19.270;2023-12-20T03:13:24;98654.97;;;-2.73;100.00
71059;BME280;70265;47.576;19.270;2023-12-20T03:14:28;98657.22;;;-2.67;100.00
71059;BME280;70265;47.576;19.270;2023-12-20T03:15:29;98657.06;;;-2.64;100.00
71059;BME280;70265;47.576;19.270;2023-12-20T03:16:33;98659.63;;;-2.64;100.00
71059;BME280;70265;47.576;19.270;2023-12-20T03:17:34;98654.56;;;-2.65;100.00
71059;BME280;70265;47.576;19.270;2023-12-20T03:18:37;98654.72;;;-2.68;100.00
71059;BME280;70265;47.576;19.270;2023-12-20T03:19:38;98654.81;;;-2.70;100.00
71059;BME280;70265;47.576;19.270;2023-12-20T03:20:42;98658.88;;;-2.66;100.00
71059;BME280;70265;47.576;19.270;2023-12-20T03:21:43;98655.41;;;-2.65;100.00
71059;BME280;70265;47.576;19.270;2023-12-20T03:22:47;98648.47;;;-2.63;100.00
71059;BME280;70265;47.576;19.270;2023-12-20T03:23:47;98654.34;;;-2.61;100.00
71059;BME280;70265;47.576;19.270;2023-12-20T03:24:54;98661.66;;;-2.53;100.00
71059;BME280;70265;47.576;19.270;2023-12-20T03:25:55;98653.44;;;-2.60;100.00
71059;BME280;70265;47.576;19.270;2023-12-20T03:26:58;98654.13;;;-2.56;100.00
71059;BME280;70265;47.576;19.270;2023-12-20T03:28:00;98653.28;;;-2.57;100.00
71059;BME280;70265;47.576;19.270;2023-12-20T03:29:04;98657.81;;;-2.62;100.00
71059;BME280;70265;47.576;19.270;2023-12-20T03:30:06;98653.06;;;-2.69;100.00
71059;BME280;70265;47.576;19.270;2023-12-20T03:31:10;98653.28;;;-2.74;100.00
71059;BME280;70265;47.576;19.270;2023-12-20T03:32:11;98653.44;;;-2.77;100.00
71059;BME280;70265;47.576;19.270;2023-12-20T03:33:16;98655.25;;;-2.79;100.00
71059;BME280;70265;47.576;19.270;2023-12-20T03:34:17;98656.75;;;-2.75;100.00
71059;BME280;70265;47.576;19.270;2023-12-20T03:35:20;98653.13;;;-2.71;100.00
71059;BME280;70265;47.576;19.270;2023-12-20T03:36:21;98656.69;;;-2.73;100.00
71059;BME280;70265;47.576;19.270;2023-12-20T03:37:23;98661.81;;;-2.73;100.00
71059;BME280;70265;47.576;19.270;2023-12-20T03:38:26;98654.88;;;-2.71;100.00
71059;BME280;70265;47.576;19.270;2023-12-20T03:39:27;98657.22;;;-2.67;100.00
71059;BME280;70265;47.576;19.270;2023-12-20T03:40:30;98660.63;;;-2.66;100.00
71059;BME280;70265;47.576;19.270;2023-12-20T03:41:34;98663.34;;;-2.69;100.00
71059;BME280;70265;47.576;19.270;2023-12-20T03:42:35;98653.75;;;-2.66;100.00
71059;BME280;70265;47.576;19.270;2023-12-20T03:43:39;98662.88;;;-2.60;100.00
71059;BME280;70265;47.576;19.270;2023-12-20T03:44:40;98660.09;;;-2.55;100.00
71059;BME280;70265;47.576;19.270;2023-12-20T03:45:41;98659.00;;;-2.51;100.00
71059;BME280;70265;47.576;19.270;2023-12-20T03:46:45;98657.28;;;-2.51;100.00
71059;BME280;70265;47.576;19.270;2023-12-20T03:47:46;98659.94;;;-2.52;100.00
71059;BME280;70265;47.576;19.270;2023-12-20T03:48:50;98662.56;;;-2.54;100.00
71059;BME280;70265;47.576;19.270;2023-12-20T03:49:51;98655.84;;;-2.57;100.00
71059;BME280;70265;47.576;19.270;2023-12-20T03:50:54;98656.75;;;-2.58;100.00
71059;BME280;70265;47.576;19.270;2023-12-20T03:51:55;98659.56;;;-2.62;100.00
71059;BME280;70265;47.576;19.270;2023-12-20T03:52:59;98655.91;;;-2.58;100.00
71059;BME280;70265;47.576;19.270;2023-12-20T03:54:00;98658.34;;;-2.55;100.00
71059;BME280;70265;47.576;19.270;2023-12-20T03:55:01;98658.59;;;-2.60;100.00
71059;BME280;70265;47.576;19.270;2023-12-20T03:56:08;98657.97;;;-2.65;100.00
71059;BME280;70265;47.576;19.270;2023-12-20T03:57:09;98659.84;;;-2.68;100.00
71059;BME280;70265;47.576;19.270;2023-12-20T03:58:09;98662.50;;;-2.70;100.00
71059;BME280;70265;47.576;19.270;2023-12-20T03:59:13;98654.03;;;-2.72;100.00
71059;BME280;70265;47.576;19.270;2023-12-20T04:00:15;98662.41;;;-2.68;100.00
71059;BME280;70265;47.576;19.270;2023-12-20T04:01:18;98665.50;;;-2.62;100.00
71059;BME280;70265;47.576;19.270;2023-12-20T04:02:19;98661.81;;;-2.56;100.00
71059;BME280;70265;47.576;19.270;2023-12-20T04:03:23;98652.31;;;-2.54;100.00
71059;BME280;70265;47.576;19.270;2023-12-20T04:04:24;98659.31;;;-2.58;100.00
71059;BME280;70265;47.576;19.270;2023-12-20T04:05:28;98650.63;;;-2.55;100.00
71059;BME280;70265;47.576;19.270;2023-12-20T04:06:28;98652.31;;;-2.54;100.00
71059;BME280;70265;47.576;19.270;2023-12-20T04:07:32;98647.94;;;-2.52;100.00
71059;BME280;70265;47.576;19.270;2023-12-20T04:08:33;98643.19;;;-2.60;100.00
71059;BME280;70265;47.576;19.270;2023-12-20T04:09:37;98647.94;;;-2.69;100.00
71059;BME280;70265;47.576;19.270;2023-12-20T04:10:38;98637.69;;;-2.69;100.00
71059;BME280;70265;47.576;19.270;2023-12-20T04:11:44;98634.66;;;-2.77;100.00
71059;BME280;70265;47.576;19.270;2023-12-20T04:12:45;98631.47;;;-2.82;100.00
71059;BME280;70265;47.576;19.270;2023-12-20T04:13:48;98638.34;;;-2.83;100.00
71059;BME280;70265;47.576;19.270;2023-12-20T04:14:49;98631.47;;;-2.82;100.00
71059;BME280;70265;47.576;19.270;2023-12-20T04:15:53;98634.81;;;-2.80;100.00
71059;BME280;70265;47.576;19.270;2023-12-20T04:16:54;98640.63;;;-2.77;100.00
71059;BME280;70265;47.576;19.270;2023-12-20T04:17:57;98638.63;;;-2.72;100.00
71059;BME280;70265;47.576;19.270;2023-12-20T04:18:58;98646.28;;;-2.70;100.00
71059;BME280;70265;47.576;19.270;2023-12-20T04:20:04;98644.53;;;-2.70;100.00
71059;BME280;70265;47.576;19.270;2023-12-20T04:21:05;98636.91;;;-2.71;100.00
71059;BME280;70265;47.576;19.270;2023-12-20T04:22:09;98645.53;;;-2.72;100.00
71059;BME280;70265;47.576;19.270;2023-12-20T04:23:10;98630.03;;;-2.71;100.00
71059;BME280;70265;47.576;19.270;2023-12-20T04:24:14;98633.22;;;-2.66;100.00
71059;BME280;70265;47.576;19.270;2023-12-20T04:25:15;98625.66;;;-2.69;100.00
71059;BME280;70265;47.576;19.270;2023-12-20T04:26:18;98617.88;;;-2.67;100.00
71059;BME280;70265;47.576;19.270;2023-12-20T04:27:22;98612.06;;;-2.71;100.00
71059;BME280;70265;47.576;19.270;2023-12-20T04:28:23;98609.03;;;-2.79;100.00
71059;BME280;70265;47.576;19.270;2023-12-20T04:29:27;98610.13;;;-2.83;100.00
71059;BME280;70265;47.576;19.270;2023-12-20T04:30:28;98619.94;;;-2.74;100.00
71059;BME280;70265;47.576;19.270;2023-12-20T04:31:31;98614.63;;;-2.71;100.00
71059;BME280;70265;47.576;19.270;2023-12-20T04:32:32;98617.22;;;-2.71;100.00
71059;BME280;70265;47.576;19.270;2023-12-20T04:33:36;98619.63;;;-2.68;100.00
71059;BME280;70265;47.576;19.270;2023-12-20T04:34:37;98611.50;;;-2.76;100.00
71059;BME280;70265;47.576;19.270;2023-12-20T04:35:37;98598.66;;;-2.76;100.00
71059;BME280;70265;47.576;19.270;2023-12-20T04:36:43;98595.47;;;-2.81;100.00
71059;BME280;70265;47.576;19.270;2023-12-20T04:37:47;98599.72;;;-2.80;100.00
71059;BME280;70265;47.576;19.270;2023-12-20T04:38:49;98590.81;;;-2.73;100.00
71059;BME280;70265;47.576;19.270;2023-12-20T04:39:53;98597.06;;;-2.78;100.00
71059;BME280;70265;47.576;19.270;2023-12-20T04:40:54;98598.03;;;-2.81;100.00
71059;BME280;70265;47.576;19.270;2023-12-20T04:41:57;98595.94;;;-2.73;100.00
71059;BME280;70265;47.576;19.270;2023-12-20T04:43:01;98597.72;;;-2.75;100.00
71059;BME280;70265;47.576;19.270;2023-12-20T04:44:05;98590.03;;;-2.75;100.00
71059;BME280;70265;47.576;19.270;2023-12-20T04:45:08;98586.34;;;-2.86;100.00
71059;BME280;70265;47.576;19.270;2023-12-20T04:46:16;98588.31;;;-2.91;100.00
71059;BME280;70265;47.576;19.270;2023-12-20T04:47:17;98587.78;;;-2.81;100.00
71059;BME280;70265;47.576;19.270;2023-12-20T04:48:18;98589.19;;;-2.75;100.00
71059;BME280;70265;47.576;19.270;2023-12-20T04:49:21;98578.03;;;-2.74;100.00
71059;BME280;70265;47.576;19.270;2023-12-20T04:50:22;98577.13;;;-2.73;100.00
71059;BME280;70265;47.576;19.270;2023-12-20T04:51:26;98572.06;;;-2.75;100.00
71059;BME280;70265;47.576;19.270;2023-12-20T04:52:27;98561.22;;;-2.80;100.00
71059;BME280;70265;47.576;19.270;2023-12-20T04:53:31;98564.00;;;-2.84;100.00
71059;BME280;70265;47.576;19.270;2023-12-20T04:54:32;98559.56;;;-2.81;100.00
71059;BME280;70265;47.576;19.270;2023-12-20T04:55:35;98548.63;;;-2.84;100.00
71059;BME280;70265;47.576;19.270;2023-12-20T04:56:37;98538.97;;;-2.96;100.00
71059;BME280;70265;47.576;19.270;2023-12-20T04:57:38;98540.19;;;-3.03;100.00
71059;BME280;70265;47.576;19.270;2023-12-20T04:58:45;98545.91;;;-2.98;100.00
71059;BME280;70265;47.576;19.270;2023-12-20T04:59:46;98550.03;;;-2.96;100.00
71059;BME280;70265;47.576;19.270;2023-12-20T05:00:49;98540.56;;;-2.94;100.00
71059;BME280;70265;47.576;19.270;2023-12-20T05:01:50;98544.00;;;-2.95;100.00
71059;BME280;70265;47.576;19.270;2023-12-20T05:02:54;98547.47;;;-2.96;100.00
71059;BME280;70265;47.576;19.270;2023-12-20T05:03:55;98541.38;;;-2.93;100.00
71059;BME280;70265;47.576;19.270;2023-12-20T05:04:58;98537.84;;;-2.91;100.00
71059;BME280;70265;47.576;19.270;2023-12-20T05:05:59;98531.03;;;-2.92;100.00
71059;BME280;70265;47.576;19.270;2023-12-20T05:07:03;98528.41;;;-2.90;100.00
71059;BME280;70265;47.576;19.270;2023-12-20T05:08:05;98526.66;;;-2.90;100.00
71059;BME280;70265;47.576;19.270;2023-12-20T05:09:06;98525.00;;;-2.91;100.00
71059;BME280;70265;47.576;19.270;2023-12-20T05:10:10;98533.44;;;-2.89;100.00
71059;BME280;70265;47.576;19.270;2023-12-20T05:11:11;98525.00;;;-2.91;100.00
71059;BME280;70265;47.576;19.270;2023-12-20T05:12:17;98535.31;;;-2.92;100.00
71059;BME280;70265;47.576;19.270;2023-12-20T05:13:18;98532.84;;;-2.94;100.00
71059;BME280;70265;47.576;19.270;2023-12-20T05:14:25;98531.28;;;-2.96;100.00
71059;BME280;70265;47.576;19.270;2023-12-20T05:15:25;98533.16;;;-3.00;100.00
71059;BME280;70265;47.576;19.270;2023-12-20T05:16:29;98540.19;;;-3.03;100.00
71059;BME280;70265;47.576;19.270;2023-12-20T05:17:30;98540.03;;;-3.00;100.00
71059;BME280;70265;47.576;19.270;2023-12-20T05:18:33;98540.88;;;-3.00;100.00
71059;BME280;70265;47.576;19.270;2023-12-20T05:19:34;98529.94;;;-3.03;100.00
71059;BME280;70265;47.576;19.270;2023-12-20T05:20:38;98527.38;;;-3.03;100.00
71059;BME280;70265;47.576;19.270;2023-12-20T05:21:39;98531.44;;;-2.99;100.00
71059;BME280;70265;47.576;19.270;2023-12-20T05:22:43;98532.34;;;-3.00;100.00